createdAt,value
2019-04-21T00:00:55.447Z,1026.79
2019-04-21T00:01:52.168Z,1026.78
2019-04-21T00:02:50.908Z,1026.76
2019-04-21T00:03:53.912Z,1026.74
2019-04-21T00:05:06.098Z,1026.72
2019-04-21T00:06:09.140Z,1026.73
2019-04-21T00:07:11.202Z,1026.72
2019-04-21T00:08:16.600Z,1026.70
2019-04-21T00:09:11.439Z,1026.71
2019-04-21T00:10:13.600Z,1026.70
2019-04-21T00:11:09.426Z,1026.71
2019-04-21T00:12:11.966Z,1026.70
2019-04-21T00:13:02.685Z,1026.72
2019-04-21T00:14:01.005Z,1026.69
2019-04-21T00:15:01.960Z,1026.71
2019-04-21T00:15:57.120Z,1026.69
2019-04-21T00:16:57.481Z,1026.66
2019-04-21T00:17:54.157Z,1026.68
2019-04-21T00:18:58.067Z,1026.68
2019-04-21T00:19:49.678Z,1026.63
2019-04-21T00:20:52.709Z,1026.64
2019-04-21T00:21:55.333Z,1026.63
2019-04-21T00:23:02.799Z,1026.65
2019-04-21T00:24:05.872Z,1026.61
2019-04-21T00:25:08.958Z,1026.61
2019-04-21T00:26:01.971Z,1026.60
2019-04-21T00:27:05.625Z,1026.61
2019-04-21T00:28:09.612Z,1026.60
2019-04-21T00:29:14.085Z,1026.59
2019-04-21T00:30:13.341Z,1026.59
2019-04-21T00:31:06.571Z,1026.62
2019-04-21T00:32:01.773Z,1026.58
2019-04-21T00:32:56.423Z,1026.56
2019-04-21T00:33:50.174Z,1026.55
2019-04-21T00:34:56.592Z,1026.59
2019-04-21T00:35:54.959Z,1026.53
2019-04-21T00:37:00.105Z,1026.54
2019-04-21T00:38:09.675Z,1026.53
2019-04-21T00:39:23.207Z,1026.54
2019-04-21T00:40:10.384Z,1026.51
2019-04-21T00:41:13.437Z,1026.51
2019-04-21T00:43:06.438Z,1026.50
2019-04-21T00:44:00.756Z,1026.52
2019-04-21T00:45:03.515Z,1026.56
2019-04-21T00:45:59.977Z,1026.51
2019-04-21T00:47:03.075Z,1026.53
2019-04-21T00:48:14.657Z,1026.52
2019-04-21T00:49:05.938Z,1026.53
2019-04-21T00:50:25.603Z,1026.53
2019-04-21T00:51:33.245Z,1026.52
2019-04-21T00:52:24.671Z,1026.50
2019-04-21T00:53:33.827Z,1026.53
2019-04-21T00:54:21.144Z,1026.52
2019-04-21T00:55:23.429Z,1026.48
2019-04-21T00:56:16.716Z,1026.50
2019-04-21T00:57:14.502Z,1026.47
2019-04-21T00:58:10.683Z,1026.46
2019-04-21T00:59:18.253Z,1026.46
2019-04-21T01:00:11.650Z,1026.47
2019-04-21T01:01:07.439Z,1026.46
2019-04-21T01:03:12.894Z,1026.43
2019-04-21T01:04:11.312Z,1026.47
2019-04-21T01:05:11.121Z,1026.43
2019-04-21T01:06:14.302Z,1026.43
2019-04-21T01:07:10.894Z,1026.44
2019-04-21T01:08:09.428Z,1026.45
2019-04-21T01:09:07.658Z,1026.42
2019-04-21T01:10:01.410Z,1026.39
2019-04-21T01:11:11.723Z,1026.40
2019-04-21T01:12:07.830Z,1026.36
2019-04-21T01:13:14.038Z,1026.39
2019-04-21T01:14:13.176Z,1026.38
2019-04-21T01:15:16.402Z,1026.41
2019-04-21T01:16:10.164Z,1026.38
2019-04-21T01:17:17.074Z,1026.38
2019-04-21T01:18:12.952Z,1026.36
2019-04-21T01:19:08.901Z,1026.38
2019-04-21T01:20:05.523Z,1026.36
2019-04-21T01:20:47.229Z,1026.33
2019-04-21T01:21:47.156Z,1026.34
2019-04-21T01:22:47.124Z,1026.35
2019-04-21T01:23:48.533Z,1026.35
2019-04-21T01:24:56.999Z,1026.37
2019-04-21T01:26:03.192Z,1026.32
2019-04-21T01:26:58.068Z,1026.32
2019-04-21T01:28:04.971Z,1026.29
2019-04-21T01:29:10.428Z,1026.29
2019-04-21T01:30:14.290Z,1026.28
2019-04-21T01:31:03.446Z,1026.30
2019-04-21T01:32:10.452Z,1026.24
2019-04-21T01:33:07.650Z,1026.26
2019-04-21T01:34:13.396Z,1026.27
2019-04-21T01:35:08.407Z,1026.23
2019-04-21T01:36:03.909Z,1026.31
2019-04-21T01:37:05.914Z,1026.26
2019-04-21T01:38:06.897Z,1026.20
2019-04-21T01:39:13.111Z,1026.25
2019-04-21T01:40:08.445Z,1026.24
2019-04-21T01:41:12.970Z,1026.23
2019-04-21T01:42:11.259Z,1026.24
2019-04-21T01:43:11.890Z,1026.22
2019-04-21T01:44:07.989Z,1026.24
2019-04-21T01:45:07.673Z,1026.22
2019-04-21T01:46:06.686Z,1026.16
2019-04-21T01:47:04.864Z,1026.18
2019-04-21T01:48:05.146Z,1026.19
2019-04-21T01:49:01.526Z,1026.18
2019-04-21T01:49:56.782Z,1026.21
2019-04-21T01:51:01.564Z,1026.18
2019-04-21T01:52:17.878Z,1026.22
2019-04-21T01:53:11.131Z,1026.21
2019-04-21T01:54:12.475Z,1026.20
2019-04-21T01:55:09.071Z,1026.21
2019-04-21T01:56:08.256Z,1026.19
2019-04-21T01:57:02.133Z,1026.18
2019-04-21T01:58:03.310Z,1026.16
2019-04-21T01:58:54.019Z,1026.17
2019-04-21T01:59:58.870Z,1026.17
2019-04-21T02:01:03.547Z,1026.17
2019-04-21T02:02:06.203Z,1026.16
2019-04-21T02:03:09.888Z,1026.19
2019-04-21T02:04:02.730Z,1026.18
2019-04-21T02:05:13.420Z,1026.16
2019-04-21T02:06:15.609Z,1026.20
2019-04-21T02:07:13.026Z,1026.17
2019-04-21T02:08:05.509Z,1026.14
2019-04-21T02:09:03.372Z,1026.17
2019-04-21T02:10:11.212Z,1026.17
2019-04-21T02:11:11.178Z,1026.13
2019-04-21T02:12:08.754Z,1026.12
2019-04-21T02:13:03.639Z,1026.18
2019-04-21T02:14:26.307Z,1026.17
2019-04-21T02:15:11.096Z,1026.17
2019-04-21T02:16:06.772Z,1026.13
2019-04-21T02:17:10.339Z,1026.14
2019-04-21T02:18:09.167Z,1026.12
2019-04-21T02:19:04.436Z,1026.13
2019-04-21T02:20:00.088Z,1026.06
2019-04-21T02:20:52.882Z,1026.08
2019-04-21T02:22:01.907Z,1026.07
2019-04-21T02:23:24.801Z,1026.08
2019-04-21T02:24:13.624Z,1026.05
2019-04-21T02:25:11.302Z,1026.03
2019-04-21T02:26:09.836Z,1026.03
2019-04-21T02:27:07.544Z,1025.99
2019-04-21T02:28:13.401Z,1026.02
2019-04-21T02:29:08.567Z,1026.01
2019-04-21T02:30:14.250Z,1025.97
2019-04-21T02:32:14.411Z,1025.97
2019-04-21T02:33:19.493Z,1025.97
2019-04-21T02:35:20.821Z,1025.94
2019-04-21T02:38:20.542Z,1025.92
2019-04-21T02:39:34.660Z,1025.91
2019-04-21T02:40:17.350Z,1025.90
2019-04-21T02:41:13.155Z,1025.90
2019-04-21T02:42:11.552Z,1025.88
2019-04-21T02:43:19.093Z,1025.88
2019-04-21T02:44:23.407Z,1025.88
2019-04-21T02:45:19.105Z,1025.91
2019-04-21T02:47:16.663Z,1025.86
2019-04-21T02:49:22.067Z,1025.87
2019-04-21T02:50:19.128Z,1025.82
2019-04-21T02:51:19.370Z,1025.84
2019-04-21T02:52:27.386Z,1025.79
2019-04-21T02:53:18.426Z,1025.78
2019-04-21T02:56:18.507Z,1025.79
2019-04-21T02:58:17.887Z,1025.75
2019-04-21T02:59:17.127Z,1025.73
2019-04-21T03:00:14.984Z,1025.73
2019-04-21T03:01:24.166Z,1025.71
2019-04-21T03:02:14.498Z,1025.71
2019-04-21T03:03:13.347Z,1025.67
2019-04-21T03:05:20.803Z,1025.69
2019-04-21T03:08:19.063Z,1025.68
2019-04-21T03:09:18.274Z,1025.68
2019-04-21T03:10:20.549Z,1025.65
2019-04-21T03:12:22.590Z,1025.62
2019-04-21T03:13:23.459Z,1025.59
2019-04-21T03:14:17.072Z,1025.57
2019-04-21T03:15:21.945Z,1025.56
2019-04-21T03:17:17.861Z,1025.55
2019-04-21T03:18:19.557Z,1025.52
2019-04-21T03:19:15.626Z,1025.46
2019-04-21T03:20:19.361Z,1025.48
2019-04-21T03:21:15.450Z,1025.48
2019-04-21T03:22:19.994Z,1025.45
2019-04-21T03:23:20.947Z,1025.43
2019-04-21T03:24:41.298Z,1025.46
2019-04-21T03:25:25.352Z,1025.42
2019-04-21T03:26:20.412Z,1025.44
2019-04-21T03:28:20.176Z,1025.41
2019-04-21T03:29:19.820Z,1025.42
2019-04-21T03:35:43.831Z,1025.39
2019-04-21T03:36:41.465Z,1025.35
2019-04-21T03:37:16.920Z,1025.37
2019-04-21T03:39:11.363Z,1025.36
2019-04-21T03:41:11.535Z,1025.33
2019-04-21T03:42:32.826Z,1025.35
2019-04-21T03:43:16.720Z,1025.32
2019-04-21T03:44:14.688Z,1025.32
2019-04-21T03:45:32.683Z,1025.36
2019-04-21T03:46:19.473Z,1025.38
2019-04-21T03:47:18.811Z,1025.35
2019-04-21T03:49:23.150Z,1025.34
2019-04-21T03:50:13.417Z,1025.32
2019-04-21T03:51:23.109Z,1025.29
2019-04-21T03:52:19.427Z,1025.33
2019-04-21T03:53:18.556Z,1025.29
2019-04-21T03:54:09.274Z,1025.30
2019-04-21T03:56:16.118Z,1025.28
2019-04-21T03:59:03.944Z,1025.25
2019-04-21T04:00:30.469Z,1025.22
2019-04-21T04:01:08.015Z,1025.27
2019-04-21T04:02:18.576Z,1025.29
2019-04-21T04:04:19.612Z,1025.26
2019-04-21T04:05:31.323Z,1025.26
2019-04-21T04:07:34.066Z,1025.23
2019-04-21T04:08:22.783Z,1025.24
2019-04-21T04:09:21.238Z,1025.26
2019-04-21T04:11:23.440Z,1025.19
2019-04-21T04:12:32.837Z,1025.24
2019-04-21T04:13:19.348Z,1025.23
2019-04-21T04:15:12.223Z,1025.24
2019-04-21T04:18:23.418Z,1025.21
2019-04-21T04:19:18.600Z,1025.23
2019-04-21T04:20:19.204Z,1025.23
2019-04-21T04:22:15.282Z,1025.20
2019-04-21T04:23:10.356Z,1025.22
2019-04-21T04:24:13.702Z,1025.20
2019-04-21T04:25:13.376Z,1025.19
2019-04-21T04:26:14.773Z,1025.19
2019-04-21T04:27:20.272Z,1025.21
2019-04-21T04:28:28.879Z,1025.22
2019-04-21T04:29:12.391Z,1025.23
2019-04-21T04:30:20.009Z,1025.20
2019-04-21T04:31:22.318Z,1025.21
2019-04-21T04:32:04.035Z,1025.27
2019-04-21T04:33:21.044Z,1025.25
2019-04-21T04:34:14.319Z,1025.23
2019-04-21T04:35:14.480Z,1025.21
2019-04-21T04:36:36.006Z,1025.26
2019-04-21T04:37:26.233Z,1025.24
2019-04-21T04:38:13.096Z,1025.24
2019-04-21T04:39:25.620Z,1025.25
2019-04-21T04:40:13.942Z,1025.24
2019-04-21T04:41:14.571Z,1025.20
2019-04-21T04:43:17.536Z,1025.26
2019-04-21T04:44:39.083Z,1025.22
2019-04-21T04:45:15.756Z,1025.22
2019-04-21T04:46:07.173Z,1025.21
2019-04-21T04:47:16.749Z,1025.23
2019-04-21T04:49:23.725Z,1025.24
2019-04-21T04:50:00.723Z,1025.22
2019-04-21T04:51:36.475Z,1025.15
2019-04-21T04:53:15.678Z,1025.16
2019-04-21T04:54:07.193Z,1025.16
2019-04-21T04:55:12.019Z,1025.17
2019-04-21T04:56:10.496Z,1025.17
2019-04-21T04:57:13.859Z,1025.21
2019-04-21T04:58:16.118Z,1025.19
2019-04-21T04:59:33.755Z,1025.21
2019-04-21T05:00:21.383Z,1025.18
2019-04-21T05:02:20.488Z,1025.21
2019-04-21T05:03:19.138Z,1025.20
2019-04-21T05:04:16.035Z,1025.19
2019-04-21T05:05:15.662Z,1025.22
2019-04-21T05:06:28.085Z,1025.20
2019-04-21T05:07:16.929Z,1025.20
2019-04-21T05:08:34.414Z,1025.17
2019-04-21T05:10:11.690Z,1025.15
2019-04-21T05:11:20.864Z,1025.15
2019-04-21T05:12:07.703Z,1025.17
2019-04-21T05:13:11.829Z,1025.15
2019-04-21T05:15:10.067Z,1025.16
2019-04-21T05:16:16.321Z,1025.14
2019-04-21T05:17:14.273Z,1025.19
2019-04-21T05:18:05.389Z,1025.20
2019-04-21T05:19:16.123Z,1025.19
2019-04-21T05:20:17.005Z,1025.17
2019-04-21T05:21:24.388Z,1025.18
2019-04-21T05:22:14.155Z,1025.16
2019-04-21T05:23:02.983Z,1025.14
2019-04-21T05:23:55.913Z,1025.15
2019-04-21T05:24:59.476Z,1025.16
2019-04-21T05:25:53.333Z,1025.18
2019-04-21T05:26:58.370Z,1025.21
2019-04-21T05:27:54.055Z,1025.25
2019-04-21T05:28:53.974Z,1025.22
2019-04-21T05:30:10.233Z,1025.26
2019-04-21T05:31:11.029Z,1025.22
2019-04-21T05:32:00.520Z,1025.21
2019-04-21T05:33:05.626Z,1025.20
2019-04-21T05:34:07.543Z,1025.21
2019-04-21T05:35:01.633Z,1025.22
2019-04-21T05:36:01.863Z,1025.23
2019-04-21T05:37:04.094Z,1025.22
2019-04-21T05:38:03.067Z,1025.25
2019-04-21T05:38:57.087Z,1025.24
2019-04-21T05:39:57.229Z,1025.23
2019-04-21T05:40:52.386Z,1025.24
2019-04-21T05:41:47.455Z,1025.19
2019-04-21T05:42:55.257Z,1025.18
2019-04-21T05:46:04.789Z,1025.19
2019-04-21T05:48:12.244Z,1025.22
2019-04-21T05:49:00.919Z,1025.14
2019-04-21T05:49:55.292Z,1025.18
2019-04-21T05:51:00.184Z,1025.17
2019-04-21T05:51:55.770Z,1025.17
2019-04-21T05:52:57.525Z,1025.21
2019-04-21T05:54:09.275Z,1025.19
2019-04-21T05:55:06.229Z,1025.21
2019-04-21T05:56:08.291Z,1025.18
2019-04-21T05:57:03.331Z,1025.17
2019-04-21T05:58:02.537Z,1025.20
2019-04-21T05:58:58.058Z,1025.17
2019-04-21T06:00:06.279Z,1025.16
2019-04-21T06:02:07.190Z,1025.17
2019-04-21T06:03:03.717Z,1025.18
2019-04-21T06:04:05.526Z,1025.17
2019-04-21T06:05:17.891Z,1025.14
2019-04-21T06:06:10.787Z,1025.09
2019-04-21T06:07:06.038Z,1025.12
2019-04-21T06:08:00.405Z,1025.07
2019-04-21T06:09:05.333Z,1025.09
2019-04-21T06:09:59.593Z,1025.10
2019-04-21T06:11:00.170Z,1025.07
2019-04-21T06:12:03.416Z,1025.07
2019-04-21T06:13:07.114Z,1025.04
2019-04-21T06:14:02.496Z,1025.09
2019-04-21T06:15:08.790Z,1025.08
2019-04-21T06:16:03.559Z,1025.06
2019-04-21T06:17:04.587Z,1025.07
2019-04-21T06:18:05.363Z,1025.06
2019-04-21T06:19:03.328Z,1025.08
2019-04-21T06:20:01.374Z,1025.04
2019-04-21T06:20:59.480Z,1025.04
2019-04-21T06:21:57.453Z,1025.03
2019-04-21T06:23:04.235Z,1025.07
2019-04-21T06:23:59.227Z,1025.06
2019-04-21T06:27:11.603Z,1025.05
2019-04-21T06:28:00.685Z,1025.05
2019-04-21T06:28:56.854Z,1025.07
2019-04-21T06:30:01.884Z,1025.02
2019-04-21T06:31:11.169Z,1025.04
2019-04-21T06:32:20.401Z,1025.05
2019-04-21T06:33:19.643Z,1025.06
2019-04-21T06:34:01.794Z,1025.05
2019-04-21T06:35:23.706Z,1025.06
2019-04-21T06:36:31.908Z,1025.05
2019-04-21T06:37:14.898Z,1025.03
2019-04-21T06:38:10.387Z,1025.04
2019-04-21T06:41:10.371Z,1025.06
2019-04-21T06:41:58.410Z,1025.05
2019-04-21T06:43:10.979Z,1025.09
2019-04-21T06:44:01.480Z,1025.08
2019-04-21T06:46:02.222Z,1025.11
2019-04-21T06:47:02.644Z,1025.09
2019-04-21T06:48:06.320Z,1025.10
2019-04-21T06:50:00.522Z,1025.09
2019-04-21T06:51:04.911Z,1025.08
2019-04-21T06:52:02.405Z,1025.06
2019-04-21T06:53:25.217Z,1025.02
2019-04-21T06:54:04.346Z,1025.00
2019-04-21T06:55:06.453Z,1025.04
2019-04-21T06:56:02.116Z,1025.02
2019-04-21T06:56:58.528Z,1025.04
2019-04-21T06:58:03.747Z,1025.03
2019-04-21T06:59:03.194Z,1024.99
2019-04-21T06:59:58.667Z,1024.97
2019-04-21T07:00:56.177Z,1024.94
2019-04-21T07:02:08.334Z,1024.95
2019-04-21T07:03:11.395Z,1024.96
2019-04-21T07:04:08.451Z,1024.90
2019-04-21T07:05:02.333Z,1024.91
2019-04-21T07:06:03.531Z,1024.89
2019-04-21T07:07:00.517Z,1024.93
2019-04-21T07:08:16.979Z,1024.92
2019-04-21T07:09:10.148Z,1024.90
2019-04-21T07:10:01.491Z,1024.89
2019-04-21T07:11:55.001Z,1024.90
2019-04-21T07:12:59.275Z,1024.90
2019-04-21T07:14:16.205Z,1024.91
2019-04-21T07:14:59.579Z,1024.89
2019-04-21T07:16:07.304Z,1024.84
2019-04-21T07:17:05.069Z,1024.87
2019-04-21T07:18:00.108Z,1024.85
2019-04-21T07:19:09.942Z,1024.84
2019-04-21T07:20:03.190Z,1024.83
2019-04-21T07:21:00.197Z,1024.79
2019-04-21T07:21:57.385Z,1024.81
2019-04-21T07:23:01.762Z,1024.84
2019-04-21T07:25:03.014Z,1024.86
2019-04-21T07:26:01.020Z,1024.82
2019-04-21T07:27:02.608Z,1024.80
2019-04-21T07:27:58.079Z,1024.80
2019-04-21T07:29:01.826Z,1024.80
2019-04-21T07:30:06.628Z,1024.77
2019-04-21T07:31:03.401Z,1024.77
2019-04-21T07:33:07.747Z,1024.72
2019-04-21T07:34:07.745Z,1024.72
2019-04-21T07:35:03.936Z,1024.71
2019-04-21T07:35:59.642Z,1024.71
2019-04-21T07:37:00.985Z,1024.73
2019-04-21T07:37:59.088Z,1024.75
2019-04-21T07:38:57.262Z,1024.72
2019-04-21T07:39:54.997Z,1024.77
2019-04-21T07:40:52.240Z,1024.71
2019-04-21T07:42:53.799Z,1024.73
2019-04-21T07:43:50.989Z,1024.73
2019-04-21T07:44:55.375Z,1024.70
2019-04-21T07:45:52.765Z,1024.67
2019-04-21T07:46:49.082Z,1024.69
2019-04-21T07:47:57.895Z,1024.68
2019-04-21T07:48:58.541Z,1024.68
2019-04-21T07:50:01.031Z,1024.68
2019-04-21T07:51:02.144Z,1024.64
2019-04-21T07:52:08.971Z,1024.63
2019-04-21T07:53:01.019Z,1024.66
2019-04-21T07:54:08.437Z,1024.62
2019-04-21T07:55:07.944Z,1024.62
2019-04-21T07:55:38.035Z,1024.58
2019-04-21T07:56:43.856Z,1024.59
2019-04-21T07:57:52.156Z,1024.60
2019-04-21T07:59:02.814Z,1024.58
2019-04-21T08:00:12.491Z,1024.55
2019-04-21T08:01:55.047Z,1024.53
2019-04-21T08:02:58.173Z,1024.51
2019-04-21T08:04:03.647Z,1024.52
2019-04-21T08:05:02.665Z,1024.55
2019-04-21T08:05:58.620Z,1024.54
2019-04-21T08:06:55.644Z,1024.52
2019-04-21T08:08:01.437Z,1024.51
2019-04-21T08:08:52.954Z,1024.51
2019-04-21T08:09:55.083Z,1024.49
2019-04-21T08:10:50.608Z,1024.55
2019-04-21T08:11:52.320Z,1024.50
2019-04-21T08:12:54.181Z,1024.49
2019-04-21T08:13:57.913Z,1024.45
2019-04-21T08:15:05.881Z,1024.45
2019-04-21T08:15:57.752Z,1024.43
2019-04-21T08:16:57.209Z,1024.46
2019-04-21T08:17:53.366Z,1024.40
2019-04-21T08:19:05.354Z,1024.38
2019-04-21T08:19:53.045Z,1024.38
2019-04-21T08:20:53.403Z,1024.39
2019-04-21T08:21:57.636Z,1024.38
2019-04-21T08:22:59.593Z,1024.40
2019-04-21T08:23:55.688Z,1024.39
2019-04-21T08:24:59.442Z,1024.40
2019-04-21T08:26:07.868Z,1024.39
2019-04-21T08:26:57.407Z,1024.35
2019-04-21T08:29:06.677Z,1024.33
2019-04-21T08:29:59.586Z,1024.35
2019-04-21T08:30:54.267Z,1024.33
2019-04-21T08:32:04.213Z,1024.33
2019-04-21T08:33:09.223Z,1024.33
2019-04-21T08:34:01.696Z,1024.29
2019-04-21T08:35:08.006Z,1024.28
2019-04-21T08:36:11.251Z,1024.27
2019-04-21T08:36:55.323Z,1024.25
2019-04-21T08:37:55.203Z,1024.26
2019-04-21T08:39:03.280Z,1024.23
2019-04-21T08:40:04.465Z,1024.22
2019-04-21T08:40:59.069Z,1024.21
2019-04-21T08:41:58.958Z,1024.21
2019-04-21T08:42:57.118Z,1024.19
2019-04-21T08:43:56.063Z,1024.23
2019-04-21T08:44:52.462Z,1024.21
2019-04-21T08:45:57.192Z,1024.19
2019-04-21T08:47:02.627Z,1024.21
2019-04-21T08:47:58.252Z,1024.18
2019-04-21T08:48:56.613Z,1024.19
2019-04-21T08:49:53.933Z,1024.17
2019-04-21T08:51:05.640Z,1024.13
2019-04-21T08:52:01.732Z,1024.15
2019-04-21T08:52:57.017Z,1024.13
2019-04-21T08:54:55.818Z,1024.10
2019-04-21T08:56:05.768Z,1024.10
2019-04-21T08:56:57.445Z,1024.04
2019-04-21T08:58:58.519Z,1024.02
2019-04-21T08:59:58.644Z,1023.99
2019-04-21T09:01:04.075Z,1024.01
2019-04-21T09:01:55.562Z,1024.04
2019-04-21T09:02:58.970Z,1024.02
2019-04-21T09:03:56.559Z,1024.02
2019-04-21T09:04:54.144Z,1024.00
2019-04-21T09:05:59.681Z,1024.00
2019-04-21T09:08:00.338Z,1023.99
2019-04-21T09:08:58.652Z,1023.97
2019-04-21T09:09:56.123Z,1024.00
2019-04-21T09:10:55.959Z,1023.97
2019-04-21T09:11:54.129Z,1023.94
2019-04-21T09:12:52.247Z,1023.92
2019-04-21T09:13:54.853Z,1023.93
2019-04-21T09:14:55.316Z,1023.91
2019-04-21T09:16:54.458Z,1023.85
2019-04-21T09:17:47.367Z,1023.90
2019-04-21T09:18:48.709Z,1023.89
2019-04-21T09:20:00.668Z,1023.86
2019-04-21T09:20:58.027Z,1023.85
2019-04-21T09:21:54.934Z,1023.85
2019-04-21T09:22:55.712Z,1023.84
2019-04-21T09:23:54.078Z,1023.80
2019-04-21T09:24:52.545Z,1023.81
2019-04-21T09:25:57.594Z,1023.83
2019-04-21T09:26:51.379Z,1023.81
2019-04-21T09:27:46.785Z,1023.80
2019-04-21T09:28:47.984Z,1023.78
2019-04-21T09:29:40.623Z,1023.78
2019-04-21T09:30:43.934Z,1023.79
2019-04-21T09:31:39.980Z,1023.78
2019-04-21T09:32:36.670Z,1023.76
2019-04-21T09:33:41.262Z,1023.76
2019-04-21T09:34:40.417Z,1023.75
2019-04-21T09:35:35.894Z,1023.71
2019-04-21T09:36:42.745Z,1023.70
2019-04-21T09:37:44.404Z,1023.65
2019-04-21T09:38:38.199Z,1023.65
2019-04-21T09:39:41.882Z,1023.66
2019-04-21T09:40:40.113Z,1023.58
2019-04-21T09:41:38.214Z,1023.62
2019-04-21T09:42:43.014Z,1023.58
2019-04-21T09:43:43.083Z,1023.59
2019-04-21T09:44:38.615Z,1023.57
2019-04-21T09:45:35.597Z,1023.56
2019-04-21T09:46:41.855Z,1023.56
2019-04-21T09:47:42.278Z,1023.48
2019-04-21T09:48:49.146Z,1023.48
2019-04-21T09:49:37.202Z,1023.48
2019-04-21T09:50:36.269Z,1023.50
2019-04-21T09:51:34.723Z,1023.52
2019-04-21T09:52:41.737Z,1023.49
2019-04-21T09:53:38.145Z,1023.46
2019-04-21T09:54:45.253Z,1023.47
2019-04-21T09:55:42.986Z,1023.48
2019-04-21T09:56:45.465Z,1023.44
2019-04-21T09:57:41.661Z,1023.44
2019-04-21T09:58:40.329Z,1023.41
2019-04-21T09:59:38.667Z,1023.41
2019-04-21T10:00:46.348Z,1023.33
2019-04-21T10:01:49.073Z,1023.33
2019-04-21T10:02:42.754Z,1023.31
2019-04-21T10:03:42.812Z,1023.29
2019-04-21T10:04:35.668Z,1023.29
2019-04-21T10:05:34.523Z,1023.33
2019-04-21T10:06:35.005Z,1023.26
2019-04-21T10:07:38.481Z,1023.22
2019-04-21T10:08:34.496Z,1023.25
2019-04-21T10:09:35.569Z,1023.22
2019-04-21T10:10:34.449Z,1023.20
2019-04-21T10:11:35.534Z,1023.20
2019-04-21T10:12:35.077Z,1023.21
2019-04-21T10:13:34.407Z,1023.22
2019-04-21T10:14:34.394Z,1023.22
2019-04-21T10:15:35.526Z,1023.17
2019-04-21T10:16:34.395Z,1023.18
2019-04-21T10:17:35.043Z,1023.12
2019-04-21T10:18:35.753Z,1023.15
2019-04-21T10:19:34.319Z,1023.13
2019-04-21T10:20:34.305Z,1023.13
2019-04-21T10:21:34.293Z,1023.12
2019-04-21T10:22:35.070Z,1023.12
2019-04-21T10:23:34.261Z,1023.10
2019-04-21T10:24:34.247Z,1023.12
2019-04-21T10:25:34.564Z,1023.06
2019-04-21T10:26:35.454Z,1023.04
2019-04-21T10:27:34.881Z,1023.04
2019-04-21T10:28:35.131Z,1023.01
2019-04-21T10:29:35.822Z,1022.98
2019-04-21T10:30:34.770Z,1022.98
2019-04-21T10:31:34.646Z,1022.96
2019-04-21T10:32:34.517Z,1022.94
2019-04-21T10:33:34.514Z,1022.93
2019-04-21T10:34:34.838Z,1022.93
2019-04-21T10:35:35.224Z,1022.88
2019-04-21T10:36:35.128Z,1022.86
2019-04-21T10:37:45.601Z,1022.82
2019-04-21T10:38:40.527Z,1022.81
2019-04-21T10:39:34.031Z,1022.82
2019-04-21T10:40:36.861Z,1022.76
2019-04-21T10:41:35.146Z,1022.77
2019-04-21T10:42:35.367Z,1022.79
2019-04-21T10:43:35.472Z,1022.73
2019-04-21T10:44:34.709Z,1022.72
2019-04-21T10:45:34.911Z,1022.71
2019-04-21T10:46:35.007Z,1022.72
2019-04-21T10:47:34.606Z,1022.72
2019-04-21T10:48:35.053Z,1022.75
2019-04-21T10:49:34.897Z,1022.69
2019-04-21T10:50:34.765Z,1022.67
2019-04-21T10:51:35.007Z,1022.65
2019-04-21T10:52:34.769Z,1022.61
2019-04-21T10:53:34.568Z,1022.60
2019-04-21T10:54:57.278Z,1022.55
2019-04-21T10:55:53.514Z,1022.57
2019-04-21T10:56:38.782Z,1022.55
2019-04-21T10:57:34.897Z,1022.50
2019-04-21T10:58:34.178Z,1022.48
2019-04-21T10:59:33.737Z,1022.45
2019-04-21T11:00:34.323Z,1022.48
2019-04-21T11:01:34.748Z,1022.44
2019-04-21T11:02:34.797Z,1022.43
2019-04-21T11:03:35.132Z,1022.39
2019-04-21T11:04:37.333Z,1022.40
2019-04-21T11:05:34.493Z,1022.38
2019-04-21T11:06:34.748Z,1022.40
2019-04-21T11:07:40.255Z,1022.39
2019-04-21T11:08:37.956Z,1022.33
2019-04-21T11:09:33.942Z,1022.32
2019-04-21T11:10:34.055Z,1022.32
2019-04-21T11:11:34.143Z,1022.30
2019-04-21T11:12:33.544Z,1022.34
2019-04-21T11:13:34.769Z,1022.29
2019-04-21T11:14:33.532Z,1022.30
2019-04-21T11:15:33.500Z,1022.24
2019-04-21T11:16:33.485Z,1022.26
2019-04-21T11:17:34.185Z,1022.20
2019-04-21T11:18:33.976Z,1022.24
2019-04-21T11:19:34.772Z,1022.18
2019-04-21T11:20:33.425Z,1022.17
2019-04-21T11:21:34.523Z,1022.17
2019-04-21T11:22:34.025Z,1022.17
2019-04-21T11:23:33.387Z,1022.17
2019-04-21T11:24:33.440Z,1022.22
2019-04-21T11:25:33.751Z,1022.16
2019-04-21T11:26:33.789Z,1022.13
2019-04-21T11:27:33.319Z,1022.13
2019-04-21T11:28:34.504Z,1022.07
2019-04-21T11:29:33.290Z,1022.10
2019-04-21T11:30:33.697Z,1022.10
2019-04-21T11:31:33.459Z,1022.05
2019-04-21T11:32:33.247Z,1022.05
2019-04-21T11:33:33.440Z,1022.07
2019-04-21T11:34:33.489Z,1022.05
2019-04-21T11:35:33.198Z,1021.99
2019-04-21T11:36:33.260Z,1022.01
2019-04-21T11:37:34.495Z,1022.00
2019-04-21T11:38:35.235Z,1021.97
2019-04-21T11:39:42.144Z,1021.96
2019-04-21T11:40:34.044Z,1021.94
2019-04-21T11:41:34.016Z,1021.93
2019-04-21T11:42:33.563Z,1021.97
2019-04-21T11:43:33.078Z,1021.91
2019-04-21T11:44:33.183Z,1021.93
2019-04-21T11:45:34.532Z,1021.90
2019-04-21T11:46:34.234Z,1021.87
2019-04-21T11:47:34.199Z,1021.85
2019-04-21T11:48:34.424Z,1021.82
2019-04-21T11:49:32.989Z,1021.81
2019-04-21T11:50:32.973Z,1021.84
2019-04-21T11:51:33.325Z,1021.81
2019-04-21T11:52:32.945Z,1021.80
2019-04-21T11:53:33.004Z,1021.80
2019-04-21T11:54:32.961Z,1021.81
2019-04-21T11:55:36.787Z,1021.79
2019-04-21T11:56:32.882Z,1021.79
2019-04-21T11:57:38.357Z,1021.82
2019-04-21T11:58:33.749Z,1021.81
2019-04-21T11:59:33.445Z,1021.81
2019-04-21T12:00:33.590Z,1021.80
2019-04-21T12:01:33.786Z,1021.79
2019-04-21T12:02:33.220Z,1021.76
2019-04-21T12:03:33.656Z,1021.74
2019-04-21T12:04:33.680Z,1021.72
2019-04-21T12:05:33.059Z,1021.67
2019-04-21T12:06:40.884Z,1021.61
2019-04-21T12:07:33.411Z,1021.59
2019-04-21T12:08:39.318Z,1021.64
2019-04-21T12:09:33.306Z,1021.66
2019-04-21T12:10:33.374Z,1021.63
2019-04-21T12:11:33.694Z,1021.56
2019-04-21T12:12:32.983Z,1021.51
2019-04-21T12:13:32.628Z,1021.52
2019-04-21T12:14:32.613Z,1021.49
2019-04-21T12:15:32.598Z,1021.53
2019-04-21T12:16:33.133Z,1021.52
2019-04-21T12:17:32.570Z,1021.54
2019-04-21T12:18:33.998Z,1021.52
2019-04-21T12:19:32.668Z,1021.50
2019-04-21T12:20:33.442Z,1021.47
2019-04-21T12:21:46.598Z,1021.45
2019-04-21T12:22:34.086Z,1021.47
2019-04-21T12:23:32.539Z,1021.48
2019-04-21T12:24:33.388Z,1021.48
2019-04-21T12:25:33.342Z,1021.44
2019-04-21T12:26:33.768Z,1021.40
2019-04-21T12:27:32.420Z,1021.43
2019-04-21T12:28:32.460Z,1021.39
2019-04-21T12:29:33.581Z,1021.31
2019-04-21T12:30:33.549Z,1021.31
2019-04-21T12:31:33.650Z,1021.27
2019-04-21T12:32:32.346Z,1021.28
2019-04-21T12:33:32.330Z,1021.24
2019-04-21T12:34:32.341Z,1021.21
2019-04-21T12:35:33.461Z,1021.21
2019-04-21T12:36:33.716Z,1021.20
2019-04-21T12:37:33.037Z,1021.22
2019-04-21T12:38:42.557Z,1021.15
2019-04-21T12:39:32.723Z,1021.14
2019-04-21T12:40:32.595Z,1021.12
2019-04-21T12:41:32.871Z,1021.10
2019-04-21T12:42:32.447Z,1021.09
2019-04-21T12:43:32.796Z,1021.05
2019-04-21T12:44:32.169Z,1021.04
2019-04-21T12:45:32.152Z,1021.06
2019-04-21T12:46:32.136Z,1021.05
2019-04-21T12:47:32.258Z,1021.01
2019-04-21T12:48:32.107Z,1021.06
2019-04-21T12:49:32.094Z,1021.02
2019-04-21T12:50:32.158Z,1020.98
2019-04-21T12:51:33.383Z,1020.98
2019-04-21T12:52:32.148Z,1020.96
2019-04-21T12:53:32.034Z,1020.95
2019-04-21T12:54:33.127Z,1020.94
2019-04-21T12:55:38.416Z,1020.93
2019-04-21T12:56:31.988Z,1020.90
2019-04-21T12:57:33.240Z,1020.87
2019-04-21T12:58:33.111Z,1020.84
2019-04-21T12:59:32.881Z,1020.82
2019-04-21T13:00:33.252Z,1020.80
2019-04-21T13:01:32.775Z,1020.79
2019-04-21T13:02:31.899Z,1020.80
2019-04-21T13:03:32.217Z,1020.78
2019-04-21T13:04:31.869Z,1020.78
2019-04-21T13:05:31.854Z,1020.75
2019-04-21T13:06:31.913Z,1020.74